Terminal Aerodrome Forecast
Issued by NWS Mt. Holly, NJ

Current Version | Previous Version | Text Only | Print | Product List | Glossary On
Versions: 1 2 3 4 5 6 7 8 9 10 11 12 13 14 15 16 17
000
FTUS41 KPHI 251120
TAFILG
TAF
KILG 251120Z 2512/2612 06018G29KT 5SM BR VCSH OVC005
     FM251500 07016G27KT 3SM -RA OVC008
     FM251800 07016G24KT 1SM +RA OVC008
     FM252200 07015G23KT 3SM RA OVC008
     FM260000 07014KT 5SM -RA OVC005
     FM260200 06011KT 2SM BR OVC003=

USA.gov is the U.S. government's official web portal to all federal, state and local government web resources and services.